Terminal Aerodrome Forecast
Issued by NWS

Current Version | Previous Version | Text Only | Print | Product List | Glossary On
Versions: 1 2 3 4 5 6 7 8 9 10 11 12 13 14 15
244
FTUS43 KIND 201722
TAFHUF
TAF
KHUF 201722Z 2018/2118 20014G22KT P6SM FEW250
     FM211100 20011KT P6SM FEW250
     FM211600 21013G23KT P6SM SCT250=

USA.gov is the U.S. government's official web portal to all federal, state and local government web resources and services.